sensor_id;sensor_type;location;lat;lon;timestamp;P1;durP1;ratioP1;P2;durP2;ratioP2
15848;SDS011;8024;48.708;9.394;2023-04-26T00:00:02;10.90;;;8.00;;
15848;SDS011;8024;48.708;9.394;2023-04-26T00:02:34;10.17;;;7.67;;
15848;SDS011;8024;48.708;9.394;2023-04-26T00:05:01;9.63;;;7.97;;
15848;SDS011;8024;48.708;9.394;2023-04-26T00:07:29;11.37;;;8.40;;
15848;SDS011;8024;48.708;9.394;2023-04-26T00:09:56;8.33;;;7.53;;
15848;SDS011;8024;48.708;9.394;2023-04-26T00:12:23;8.40;;;7.50;;
15848;SDS011;8024;48.708;9.394;2023-04-26T00:14:50;8.03;;;6.93;;
15848;SDS011;8024;48.708;9.394;2023-04-26T00:17:17;8.57;;;7.67;;
15848;SDS011;8024;48.708;9.394;2023-04-26T00:19:46;8.27;;;7.47;;
15848;SDS011;8024;48.708;9.394;2023-04-26T00:22:13;8.50;;;7.53;;
15848;SDS011;8024;48.708;9.394;2023-04-26T00:24:40;11.40;;;7.67;;
15848;SDS011;8024;48.708;9.394;2023-04-26T00:27:07;10.87;;;8.57;;
15848;SDS011;8024;48.708;9.394;2023-04-26T00:29:34;8.93;;;7.43;;
15848;SDS011;8024;48.708;9.394;2023-04-26T00:32:02;8.20;;;7.40;;
15848;SDS011;8024;48.708;9.394;2023-04-26T00:34:32;8.73;;;7.80;;
15848;SDS011;8024;48.708;9.394;2023-04-26T00:37:01;10.80;;;8.47;;
15848;SDS011;8024;48.708;9.394;2023-04-26T00:39:29;9.47;;;7.93;;
15848;SDS011;8024;48.708;9.394;2023-04-26T00:41:56;9.23;;;8.03;;
15848;SDS011;8024;48.708;9.394;2023-04-26T00:44:24;11.00;;;8.50;;
15848;SDS011;8024;48.708;9.394;2023-04-26T00:46:51;9.83;;;8.63;;
15848;SDS011;8024;48.708;9.394;2023-04-26T00:49:20;9.47;;;8.07;;
15848;SDS011;8024;48.708;9.394;2023-04-26T00:51:50;10.27;;;7.67;;
15848;SDS011;8024;48.708;9.394;2023-04-26T00:54:19;9.33;;;7.43;;
15848;SDS011;8024;48.708;9.394;2023-04-26T00:56:46;10.23;;;8.10;;
15848;SDS011;8024;48.708;9.394;2023-04-26T00:59:16;10.50;;;7.23;;
15848;SDS011;8024;48.708;9.394;2023-04-26T01:01:44;8.17;;;7.20;;
15848;SDS011;8024;48.708;9.394;2023-04-26T01:04:12;9.43;;;7.63;;
15848;SDS011;8024;48.708;9.394;2023-04-26T01:06:40;12.33;;;9.63;;
15848;SDS011;8024;48.708;9.394;2023-04-26T01:09:07;13.07;;;8.93;;
15848;SDS011;8024;48.708;9.394;2023-04-26T01:11:37;11.10;;;8.83;;
15848;SDS011;8024;48.708;9.394;2023-04-26T01:14:05;11.57;;;8.83;;
15848;SDS011;8024;48.708;9.394;2023-04-26T01:16:33;12.13;;;8.83;;
15848;SDS011;8024;48.708;9.394;2023-04-26T01:19:06;12.03;;;9.17;;
15848;SDS011;8024;48.708;9.394;2023-04-26T01:21:34;10.43;;;9.33;;
15848;SDS011;8024;48.708;9.394;2023-04-26T01:24:03;16.07;;;8.90;;
15848;SDS011;8024;48.708;9.394;2023-04-26T01:26:32;12.33;;;8.73;;
15848;SDS011;8024;48.708;9.394;2023-04-26T01:28:59;11.10;;;8.77;;
15848;SDS011;8024;48.708;9.394;2023-04-26T01:31:27;11.60;;;8.70;;
15848;SDS011;8024;48.708;9.394;2023-04-26T01:33:54;11.13;;;8.73;;
15848;SDS011;8024;48.708;9.394;2023-04-26T01:36:21;13.57;;;9.93;;
15848;SDS011;8024;48.708;9.394;2023-04-26T01:38:48;9.17;;;8.27;;
15848;SDS011;8024;48.708;9.394;2023-04-26T01:41:16;11.17;;;8.63;;
15848;SDS011;8024;48.708;9.394;2023-04-26T01:43:44;11.70;;;9.73;;
15848;SDS011;8024;48.708;9.394;2023-04-26T01:46:11;11.10;;;8.57;;
15848;SDS011;8024;48.708;9.394;2023-04-26T01:48:38;11.53;;;8.37;;
15848;SDS011;8024;48.708;9.394;2023-04-26T01:51:05;9.50;;;8.50;;
15848;SDS011;8024;48.708;9.394;2023-04-26T01:53:33;9.70;;;8.03;;
15848;SDS011;8024;48.708;9.394;2023-04-26T01:56:00;10.13;;;8.37;;
15848;SDS011;8024;48.708;9.394;2023-04-26T01:58:28;10.00;;;8.93;;
15848;SDS011;8024;48.708;9.394;2023-04-26T02:00:56;8.63;;;7.73;;
15848;SDS011;8024;48.708;9.394;2023-04-26T02:03:29;8.43;;;7.53;;
15848;SDS011;8024;48.708;9.394;2023-04-26T02:05:56;9.47;;;8.47;;
15848;SDS011;8024;48.708;9.394;2023-04-26T02:08:24;9.37;;;8.03;;
15848;SDS011;8024;48.708;9.394;2023-04-26T02:10:51;12.23;;;8.53;;
15848;SDS011;8024;48.708;9.394;2023-04-26T02:13:18;10.33;;;8.70;;
15848;SDS011;8024;48.708;9.394;2023-04-26T02:15:47;12.50;;;8.50;;
15848;SDS011;8024;48.708;9.394;2023-04-26T02:18:15;10.50;;;7.63;;
15848;SDS011;8024;48.708;9.394;2023-04-26T02:20:45;12.43;;;8.60;;
15848;SDS011;8024;48.708;9.394;2023-04-26T02:23:13;9.43;;;7.93;;
15848;SDS011;8024;48.708;9.394;2023-04-26T02:25:40;11.17;;;8.73;;
15848;SDS011;8024;48.708;9.394;2023-04-26T02:28:08;9.90;;;7.30;;
15848;SDS011;8024;48.708;9.394;2023-04-26T02:30:35;10.17;;;8.33;;
15848;SDS011;8024;48.708;9.394;2023-04-26T02:33:03;12.83;;;8.77;;
15848;SDS011;8024;48.708;9.394;2023-04-26T02:35:31;12.73;;;9.60;;
15848;SDS011;8024;48.708;9.394;2023-04-26T02:37:58;11.63;;;8.10;;
15848;SDS011;8024;48.708;9.394;2023-04-26T02:40:25;10.90;;;7.83;;
15848;SDS011;8024;48.708;9.394;2023-04-26T02:42:54;11.10;;;8.10;;
15848;SDS011;8024;48.708;9.394;2023-04-26T02:45:21;10.67;;;8.73;;
15848;SDS011;8024;48.708;9.394;2023-04-26T02:47:48;9.97;;;7.63;;
15848;SDS011;8024;48.708;9.394;2023-04-26T02:50:17;10.97;;;7.83;;
15848;SDS011;8024;48.708;9.394;2023-04-26T02:52:44;10.00;;;8.27;;
15848;SDS011;8024;48.708;9.394;2023-04-26T02:55:11;9.87;;;7.83;;
15848;SDS011;8024;48.708;9.394;2023-04-26T02:57:38;10.40;;;7.73;;
15848;SDS011;8024;48.708;9.394;2023-04-26T03:00:06;9.33;;;7.97;;
15848;SDS011;8024;48.708;9.394;2023-04-26T03:02:34;12.00;;;8.27;;
15848;SDS011;8024;48.708;9.394;2023-04-26T03:05:01;8.70;;;7.80;;
15848;SDS011;8024;48.708;9.394;2023-04-26T03:07:30;10.23;;;8.17;;
15848;SDS011;8024;48.708;9.394;2023-04-26T03:09:57;13.27;;;8.77;;
15848;SDS011;8024;48.708;9.394;2023-04-26T03:12:24;10.13;;;8.57;;
15848;SDS011;8024;48.708;9.394;2023-04-26T03:14:51;10.80;;;8.53;;
15848;SDS011;8024;48.708;9.394;2023-04-26T03:17:18;12.07;;;9.40;;
15848;SDS011;8024;48.708;9.394;2023-04-26T03:19:45;12.63;;;9.80;;
15848;SDS011;8024;48.708;9.394;2023-04-26T03:22:13;11.23;;;9.37;;
15848;SDS011;8024;48.708;9.394;2023-04-26T03:24:43;16.23;;;10.37;;
15848;SDS011;8024;48.708;9.394;2023-04-26T03:27:11;11.40;;;9.10;;
15848;SDS011;8024;48.708;9.394;2023-04-26T03:29:38;14.20;;;10.13;;
15848;SDS011;8024;48.708;9.394;2023-04-26T03:32:05;12.73;;;10.03;;
15848;SDS011;8024;48.708;9.394;2023-04-26T03:34:33;12.70;;;10.00;;
15848;SDS011;8024;48.708;9.394;2023-04-26T03:37:00;14.50;;;10.13;;
15848;SDS011;8024;48.708;9.394;2023-04-26T03:39:27;13.83;;;9.80;;
15848;SDS011;8024;48.708;9.394;2023-04-26T03:41:56;14.50;;;10.17;;
15848;SDS011;8024;48.708;9.394;2023-04-26T03:44:23;14.07;;;9.20;;
15848;SDS011;8024;48.708;9.394;2023-04-26T03:46:50;11.03;;;9.37;;
15848;SDS011;8024;48.708;9.394;2023-04-26T03:49:17;10.60;;;9.20;;
15848;SDS011;8024;48.708;9.394;2023-04-26T03:51:45;13.23;;;9.57;;
15848;SDS011;8024;48.708;9.394;2023-04-26T03:54:12;12.60;;;9.07;;
15848;SDS011;8024;48.708;9.394;2023-04-26T03:56:39;10.13;;;8.47;;
15848;SDS011;8024;48.708;9.394;2023-04-26T03:59:08;11.90;;;9.73;;
15848;SDS011;8024;48.708;9.394;2023-04-26T04:01:35;15.23;;;10.50;;
15848;SDS011;8024;48.708;9.394;2023-04-26T04:04:02;12.67;;;9.67;;
15848;SDS011;8024;48.708;9.394;2023-04-26T04:06:30;13.03;;;9.83;;
15848;SDS011;8024;48.708;9.394;2023-04-26T04:08:57;11.43;;;8.87;;
15848;SDS011;8024;48.708;9.394;2023-04-26T04:11:25;14.20;;;9.30;;
15848;SDS011;8024;48.708;9.394;2023-04-26T04:13:52;12.33;;;8.93;;
15848;SDS011;8024;48.708;9.394;2023-04-26T04:16:20;14.43;;;10.27;;
15848;SDS011;8024;48.708;9.394;2023-04-26T04:18:47;11.50;;;9.50;;
15848;SDS011;8024;48.708;9.394;2023-04-26T04:21:14;12.60;;;10.27;;
15848;SDS011;8024;48.708;9.394;2023-04-26T04:23:42;15.10;;;11.20;;
15848;SDS011;8024;48.708;9.394;2023-04-26T04:26:09;15.17;;;11.67;;
15848;SDS011;8024;48.708;9.394;2023-04-26T04:28:36;14.00;;;10.87;;
15848;SDS011;8024;48.708;9.394;2023-04-26T04:31:04;11.23;;;9.70;;
15848;SDS011;8024;48.708;9.394;2023-04-26T04:33:34;14.07;;;10.27;;
15848;SDS011;8024;48.708;9.394;2023-04-26T04:36:01;13.10;;;10.23;;
15848;SDS011;8024;48.708;9.394;2023-04-26T04:38:30;14.03;;;11.00;;
15848;SDS011;8024;48.708;9.394;2023-04-26T04:40:57;15.00;;;9.47;;
15848;SDS011;8024;48.708;9.394;2023-04-26T04:43:25;15.63;;;9.33;;
15848;SDS011;8024;48.708;9.394;2023-04-26T04:45:52;28.83;;;11.20;;
15848;SDS011;8024;48.708;9.394;2023-04-26T04:48:19;17.13;;;10.30;;
15848;SDS011;8024;48.708;9.394;2023-04-26T04:50:48;14.33;;;9.37;;
15848;SDS011;8024;48.708;9.394;2023-04-26T04:53:15;24.90;;;10.53;;
15848;SDS011;8024;48.708;9.394;2023-04-26T04:55:42;24.70;;;10.70;;
15848;SDS011;8024;48.708;9.394;2023-04-26T04:58:10;25.63;;;11.53;;
15848;SDS011;8024;48.708;9.394;2023-04-26T05:00:38;26.80;;;10.60;;
15848;SDS011;8024;48.708;9.394;2023-04-26T05:03:05;13.27;;;10.20;;
15848;SDS011;8024;48.708;9.394;2023-04-26T05:05:33;24.90;;;11.33;;
15848;SDS011;8024;48.708;9.394;2023-04-26T05:08:02;16.77;;;10.23;;
15848;SDS011;8024;48.708;9.394;2023-04-26T05:10:31;21.00;;;10.23;;
15848;SDS011;8024;48.708;9.394;2023-04-26T05:12:59;20.43;;;10.83;;
15848;SDS011;8024;48.708;9.394;2023-04-26T05:15:27;13.37;;;9.80;;
15848;SDS011;8024;48.708;9.394;2023-04-26T05:17:54;21.40;;;11.20;;
15848;SDS011;8024;48.708;9.394;2023-04-26T05:20:23;27.27;;;11.30;;
15848;SDS011;8024;48.708;9.394;2023-04-26T05:22:51;16.37;;;9.80;;
15848;SDS011;8024;48.708;9.394;2023-04-26T05:25:19;15.27;;;10.97;;
15848;SDS011;8024;48.708;9.394;2023-04-26T05:27:46;15.10;;;10.23;;
15848;SDS011;8024;48.708;9.394;2023-04-26T05:30:14;15.20;;;10.47;;
15848;SDS011;8024;48.708;9.394;2023-04-26T05:32:41;11.70;;;10.03;;
15848;SDS011;8024;48.708;9.394;2023-04-26T05:35:09;15.47;;;10.90;;
15848;SDS011;8024;48.708;9.394;2023-04-26T05:37:36;15.00;;;10.00;;
15848;SDS011;8024;48.708;9.394;2023-04-26T05:40:05;15.00;;;10.93;;
15848;SDS011;8024;48.708;9.394;2023-04-26T05:42:35;15.47;;;11.17;;
15848;SDS011;8024;48.708;9.394;2023-04-26T05:45:03;15.30;;;10.50;;
15848;SDS011;8024;48.708;9.394;2023-04-26T05:47:30;14.27;;;10.27;;
15848;SDS011;8024;48.708;9.394;2023-04-26T05:49:58;14.03;;;10.10;;
15848;SDS011;8024;48.708;9.394;2023-04-26T05:52:25;12.93;;;9.83;;
15848;SDS011;8024;48.708;9.394;2023-04-26T05:54:52;22.87;;;10.77;;
15848;SDS011;8024;48.708;9.394;2023-04-26T05:57:19;12.57;;;10.27;;
15848;SDS011;8024;48.708;9.394;2023-04-26T05:59:48;15.37;;;11.60;;
15848;SDS011;8024;48.708;9.394;2023-04-26T06:02:15;12.60;;;10.83;;
15848;SDS011;8024;48.708;9.394;2023-04-26T06:04:42;12.37;;;10.20;;
15848;SDS011;8024;48.708;9.394;2023-04-26T06:07:10;28.87;;;10.40;;
15848;SDS011;8024;48.708;9.394;2023-04-26T06:09:37;11.70;;;9.10;;
15848;SDS011;8024;48.708;9.394;2023-04-26T06:12:04;16.57;;;11.90;;
15848;SDS011;8024;48.708;9.394;2023-04-26T06:14:31;13.03;;;10.20;;
15848;SDS011;8024;48.708;9.394;2023-04-26T06:17:00;13.80;;;11.50;;
15848;SDS011;8024;48.708;9.394;2023-04-26T06:19:27;14.13;;;10.43;;
15848;SDS011;8024;48.708;9.394;2023-04-26T06:21:54;15.93;;;11.83;;
15848;SDS011;8024;48.708;9.394;2023-04-26T06:24:21;15.07;;;11.50;;
15848;SDS011;8024;48.708;9.394;2023-04-26T06:26:49;14.40;;;11.53;;
15848;SDS011;8024;48.708;9.394;2023-04-26T06:29:17;12.50;;;10.53;;
15848;SDS011;8024;48.708;9.394;2023-04-26T06:31:44;16.07;;;12.00;;
15848;SDS011;8024;48.708;9.394;2023-04-26T06:34:12;14.70;;;11.87;;
15848;SDS011;8024;48.708;9.394;2023-04-26T06:36:39;13.80;;;10.53;;
15848;SDS011;8024;48.708;9.394;2023-04-26T06:39:06;13.87;;;11.17;;
15848;SDS011;8024;48.708;9.394;2023-04-26T06:41:33;13.33;;;11.83;;
15848;SDS011;8024;48.708;9.394;2023-04-26T06:44:01;14.03;;;10.37;;
15848;SDS011;8024;48.708;9.394;2023-04-26T06:46:28;12.47;;;11.17;;
15848;SDS011;8024;48.708;9.394;2023-04-26T06:48:55;14.07;;;12.03;;
15848;SDS011;8024;48.708;9.394;2023-04-26T06:51:23;17.83;;;12.47;;
15848;SDS011;8024;48.708;9.394;2023-04-26T06:53:51;16.07;;;12.60;;
15848;SDS011;8024;48.708;9.394;2023-04-26T06:56:18;15.07;;;11.60;;
15848;SDS011;8024;48.708;9.394;2023-04-26T06:58:56;16.50;;;12.60;;
15848;SDS011;8024;48.708;9.394;2023-04-26T07:01:25;14.17;;;11.33;;
15848;SDS011;8024;48.708;9.394;2023-04-26T07:03:53;14.77;;;11.03;;
15848;SDS011;8024;48.708;9.394;2023-04-26T07:06:21;12.87;;;10.83;;
15848;SDS011;8024;48.708;9.394;2023-04-26T07:08:51;12.80;;;10.67;;
15848;SDS011;8024;48.708;9.394;2023-04-26T07:11:18;13.37;;;11.30;;
15848;SDS011;8024;48.708;9.394;2023-04-26T07:13:45;14.70;;;12.03;;
15848;SDS011;8024;48.708;9.394;2023-04-26T07:16:12;13.53;;;11.13;;
15848;SDS011;8024;48.708;9.394;2023-04-26T07:18:40;14.80;;;11.63;;
15848;SDS011;8024;48.708;9.394;2023-04-26T07:21:07;14.60;;;11.20;;
15848;SDS011;8024;48.708;9.394;2023-04-26T07:23:36;12.97;;;10.23;;
15848;SDS011;8024;48.708;9.394;2023-04-26T07:26:03;13.40;;;10.80;;
15848;SDS011;8024;48.708;9.394;2023-04-26T07:28:31;14.50;;;11.53;;
15848;SDS011;8024;48.708;9.394;2023-04-26T07:30:59;14.30;;;9.90;;
15848;SDS011;8024;48.708;9.394;2023-04-26T07:33:26;12.93;;;10.67;;
15848;SDS011;8024;48.708;9.394;2023-04-26T07:35:53;14.53;;;9.87;;
15848;SDS011;8024;48.708;9.394;2023-04-26T07:38:21;13.43;;;9.63;;
15848;SDS011;8024;48.708;9.394;2023-04-26T07:40:50;13.03;;;10.10;;
15848;SDS011;8024;48.708;9.394;2023-04-26T07:43:17;10.20;;;7.87;;
15848;SDS011;8024;48.708;9.394;2023-04-26T07:45:45;9.03;;;5.60;;
15848;SDS011;8024;48.708;9.394;2023-04-26T07:48:12;4.50;;;4.10;;
15848;SDS011;8024;48.708;9.394;2023-04-26T07:50:40;6.43;;;4.57;;
15848;SDS011;8024;48.708;9.394;2023-04-26T07:53:07;4.83;;;3.80;;
15848;SDS011;8024;48.708;9.394;2023-04-26T07:55:34;5.73;;;4.87;;
15848;SDS011;8024;48.708;9.394;2023-04-26T07:58:03;6.53;;;4.80;;
15848;SDS011;8024;48.708;9.394;2023-04-26T08:00:30;5.53;;;4.40;;
15848;SDS011;8024;48.708;9.394;2023-04-26T08:03:02;5.67;;;4.67;;
15848;SDS011;8024;48.708;9.394;2023-04-26T08:05:29;6.33;;;4.50;;
15848;SDS011;8024;48.708;9.394;2023-04-26T08:07:57;6.13;;;3.93;;
15848;SDS011;8024;48.708;9.394;2023-04-26T08:10:25;5.83;;;4.63;;
15848;SDS011;8024;48.708;9.394;2023-04-26T08:12:52;4.93;;;4.27;;
15848;SDS011;8024;48.708;9.394;2023-04-26T08:15:22;5.93;;;5.13;;
15848;SDS011;8024;48.708;9.394;2023-04-26T08:17:50;7.10;;;3.70;;
15848;SDS011;8024;48.708;9.394;2023-04-26T08:20:17;4.90;;;4.40;;
15848;SDS011;8024;48.708;9.394;2023-04-26T08:22:45;6.77;;;4.30;;
15848;SDS011;8024;48.708;9.394;2023-04-26T08:25:12;4.53;;;3.87;;
15848;SDS011;8024;48.708;9.394;2023-04-26T08:27:40;7.10;;;4.83;;
15848;SDS011;8024;48.708;9.394;2023-04-26T08:30:09;5.93;;;4.13;;
15848;SDS011;8024;48.708;9.394;2023-04-26T08:32:37;6.03;;;4.40;;
15848;SDS011;8024;48.708;9.394;2023-04-26T08:35:05;6.57;;;4.70;;
15848;SDS011;8024;48.708;9.394;2023-04-26T08:37:33;7.80;;;4.47;;
15848;SDS011;8024;48.708;9.394;2023-04-26T08:40:02;6.10;;;4.50;;
15848;SDS011;8024;48.708;9.394;2023-04-26T08:42:29;5.20;;;3.30;;
15848;SDS011;8024;48.708;9.394;2023-04-26T08:44:59;5.43;;;3.77;;
15848;SDS011;8024;48.708;9.394;2023-04-26T08:47:27;4.60;;;4.20;;
15848;SDS011;8024;48.708;9.394;2023-04-26T08:50:03;5.57;;;4.10;;
15848;SDS011;8024;48.708;9.394;2023-04-26T08:52:33;4.63;;;3.27;;
15848;SDS011;8024;48.708;9.394;2023-04-26T08:55:02;3.97;;;2.77;;
15848;SDS011;8024;48.708;9.394;2023-04-26T08:57:31;5.70;;;3.47;;
15848;SDS011;8024;48.708;9.394;2023-04-26T08:59:59;4.60;;;3.30;;
15848;SDS011;8024;48.708;9.394;2023-04-26T09:02:29;5.97;;;3.90;;
15848;SDS011;8024;48.708;9.394;2023-04-26T09:04:57;4.43;;;4.03;;
15848;SDS011;8024;48.708;9.394;2023-04-26T09:07:28;4.90;;;4.07;;
15848;SDS011;8024;48.708;9.394;2023-04-26T09:09:57;4.90;;;3.43;;
15848;SDS011;8024;48.708;9.394;2023-04-26T09:12:25;3.70;;;3.40;;
15848;SDS011;8024;48.708;9.394;2023-04-26T09:14:53;5.10;;;3.57;;
15848;SDS011;8024;48.708;9.394;2023-04-26T09:17:23;6.93;;;3.63;;
15848;SDS011;8024;48.708;9.394;2023-04-26T09:19:52;5.47;;;3.40;;
15848;SDS011;8024;48.708;9.394;2023-04-26T09:22:28;6.53;;;3.60;;
15848;SDS011;8024;48.708;9.394;2023-04-26T09:24:56;4.33;;;3.20;;
15848;SDS011;8024;48.708;9.394;2023-04-26T09:27:30;5.20;;;3.70;;
15848;SDS011;8024;48.708;9.394;2023-04-26T09:30:00;5.60;;;3.03;;
15848;SDS011;8024;48.708;9.394;2023-04-26T09:32:48;5.23;;;4.03;;
15848;SDS011;8024;48.708;9.394;2023-04-26T09:35:20;5.63;;;3.73;;
15848;SDS011;8024;48.708;9.394;2023-04-26T09:37:55;6.47;;;3.87;;
15848;SDS011;8024;48.708;9.394;2023-04-26T09:40:25;5.73;;;4.00;;
15848;SDS011;8024;48.708;9.394;2023-04-26T09:42:56;5.23;;;3.87;;
15848;SDS011;8024;48.708;9.394;2023-04-26T09:45:25;3.90;;;3.47;;
15848;SDS011;8024;48.708;9.394;2023-04-26T09:47:53;3.87;;;3.27;;
15848;SDS011;8024;48.708;9.394;2023-04-26T09:50:25;4.97;;;3.40;;
15848;SDS011;8024;48.708;9.394;2023-04-26T09:52:54;5.93;;;3.53;;
15848;SDS011;8024;48.708;9.394;2023-04-26T09:55:25;7.40;;;3.60;;
15848;SDS011;8024;48.708;9.394;2023-04-26T09:57:53;5.30;;;2.67;;
15848;SDS011;8024;48.708;9.394;2023-04-26T10:00:21;3.97;;;2.80;;
15848;SDS011;8024;48.708;9.394;2023-04-26T10:02:48;5.30;;;2.70;;
15848;SDS011;8024;48.708;9.394;2023-04-26T10:05:16;5.03;;;2.70;;
15848;SDS011;8024;48.708;9.394;2023-04-26T10:07:44;3.60;;;2.30;;
15848;SDS011;8024;48.708;9.394;2023-04-26T10:10:12;6.73;;;3.90;;
15848;SDS011;8024;48.708;9.394;2023-04-26T10:12:39;2.97;;;2.47;;
15848;SDS011;8024;48.708;9.394;2023-04-26T10:15:08;2.73;;;2.50;;
15848;SDS011;8024;48.708;9.394;2023-04-26T10:17:36;4.17;;;2.97;;
15848;SDS011;8024;48.708;9.394;2023-04-26T10:20:03;4.33;;;2.80;;
15848;SDS011;8024;48.708;9.394;2023-04-26T10:22:35;2.90;;;2.50;;
15848;SDS011;8024;48.708;9.394;2023-04-26T10:25:07;4.53;;;2.17;;
15848;SDS011;8024;48.708;9.394;2023-04-26T10:27:49;5.63;;;3.07;;
15848;SDS011;8024;48.708;9.394;2023-04-26T10:30:20;3.90;;;3.20;;
15848;SDS011;8024;48.708;9.394;2023-04-26T10:38:35;5.07;;;2.83;;
15848;SDS011;8024;48.708;9.394;2023-04-26T10:41:26;3.90;;;2.73;;
15848;SDS011;8024;48.708;9.394;2023-04-26T10:43:57;3.57;;;2.70;;
15848;SDS011;8024;48.708;9.394;2023-04-26T10:46:32;4.97;;;2.50;;
15848;SDS011;8024;48.708;9.394;2023-04-26T10:49:11;3.87;;;2.40;;
15848;SDS011;8024;48.708;9.394;2023-04-26T10:51:39;2.50;;;2.30;;
15848;SDS011;8024;48.708;9.394;2023-04-26T10:54:07;4.77;;;2.60;;
15848;SDS011;8024;48.708;9.394;2023-04-26T10:56:50;3.43;;;2.33;;
15848;SDS011;8024;48.708;9.394;2023-04-26T10:59:22;2.63;;;2.00;;
15848;SDS011;8024;48.708;9.394;2023-04-26T11:01:50;2.30;;;2.10;;
15848;SDS011;8024;48.708;9.394;2023-04-26T11:04:18;4.73;;;2.80;;
15848;SDS011;8024;48.708;9.394;2023-04-26T11:06:48;4.37;;;2.30;;
15848;SDS011;8024;48.708;9.394;2023-04-26T11:12:13;3.47;;;2.13;;
15848;SDS011;8024;48.708;9.394;2023-04-26T11:14:43;2.17;;;1.90;;
15848;SDS011;8024;48.708;9.394;2023-04-26T11:17:10;2.80;;;2.57;;
15848;SDS011;8024;48.708;9.394;2023-04-26T11:19:39;2.33;;;2.13;;
15848;SDS011;8024;48.708;9.394;2023-04-26T11:22:07;4.67;;;2.30;;
15848;SDS011;8024;48.708;9.394;2023-04-26T11:24:35;2.57;;;2.30;;
15848;SDS011;8024;48.708;9.394;2023-04-26T11:27:06;3.03;;;2.23;;
15848;SDS011;8024;48.708;9.394;2023-04-26T11:29:34;4.43;;;2.90;;
15848;SDS011;8024;48.708;9.394;2023-04-26T11:32:03;4.10;;;2.60;;
15848;SDS011;8024;48.708;9.394;2023-04-26T11:34:31;2.33;;;2.13;;
15848;SDS011;8024;48.708;9.394;2023-04-26T11:37:00;4.37;;;2.50;;
15848;SDS011;8024;48.708;9.394;2023-04-26T11:39:29;2.73;;;2.53;;
15848;SDS011;8024;48.708;9.394;2023-04-26T11:42:03;5.40;;;3.10;;
15848;SDS011;8024;48.708;9.394;2023-04-26T11:44:31;3.97;;;2.20;;
15848;SDS011;8024;48.708;9.394;2023-04-26T11:46:59;3.67;;;2.27;;
15848;SDS011;8024;48.708;9.394;2023-04-26T11:49:30;4.07;;;2.53;;
15848;SDS011;8024;48.708;9.394;2023-04-26T11:51:57;3.00;;;2.07;;
15848;SDS011;8024;48.708;9.394;2023-04-26T11:54:26;2.63;;;2.43;;
15848;SDS011;8024;48.708;9.394;2023-04-26T11:56:54;4.17;;;2.20;;
15848;SDS011;8024;48.708;9.394;2023-04-26T11:59:24;3.50;;;2.27;;
15848;SDS011;8024;48.708;9.394;2023-04-26T12:01:53;3.27;;;2.60;;
15848;SDS011;8024;48.708;9.394;2023-04-26T12:04:25;2.57;;;2.20;;
15848;SDS011;8024;48.708;9.394;2023-04-26T12:06:55;3.60;;;2.13;;
15848;SDS011;8024;48.708;9.394;2023-04-26T12:09:22;3.60;;;2.20;;
15848;SDS011;8024;48.708;9.394;2023-04-26T12:11:55;2.23;;;2.03;;
15848;SDS011;8024;48.708;9.394;2023-04-26T12:14:29;2.53;;;2.33;;
15848;SDS011;8024;48.708;9.394;2023-04-26T12:16:57;2.50;;;2.30;;
15848;SDS011;8024;48.708;9.394;2023-04-26T12:19:25;4.47;;;2.43;;
15848;SDS011;8024;48.708;9.394;2023-04-26T12:21:53;3.77;;;2.27;;
15848;SDS011;8024;48.708;9.394;2023-04-26T12:24:21;3.50;;;2.53;;
15848;SDS011;8024;48.708;9.394;2023-04-26T12:26:49;5.27;;;2.47;;
15848;SDS011;8024;48.708;9.394;2023-04-26T12:29:17;3.83;;;2.63;;
15848;SDS011;8024;48.708;9.394;2023-04-26T12:31:44;4.73;;;2.90;;
15848;SDS011;8024;48.708;9.394;2023-04-26T12:34:12;3.27;;;2.37;;
15848;SDS011;8024;48.708;9.394;2023-04-26T12:36:39;3.03;;;2.40;;
15848;SDS011;8024;48.708;9.394;2023-04-26T12:39:08;3.90;;;2.60;;
15848;SDS011;8024;48.708;9.394;2023-04-26T12:41:37;2.53;;;2.10;;
15848;SDS011;8024;48.708;9.394;2023-04-26T12:44:04;4.07;;;2.40;;
15848;SDS011;8024;48.708;9.394;2023-04-26T12:46:32;3.73;;;2.60;;
15848;SDS011;8024;48.708;9.394;2023-04-26T12:48:59;3.53;;;2.23;;
15848;SDS011;8024;48.708;9.394;2023-04-26T12:51:27;6.93;;;3.03;;
15848;SDS011;8024;48.708;9.394;2023-04-26T12:53:55;2.57;;;2.37;;
15848;SDS011;8024;48.708;9.394;2023-04-26T12:56:24;5.17;;;3.23;;
15848;SDS011;8024;48.708;9.394;2023-04-26T12:58:51;3.93;;;2.73;;
15848;SDS011;8024;48.708;9.394;2023-04-26T13:01:19;2.90;;;2.17;;
15848;SDS011;8024;48.708;9.394;2023-04-26T13:03:46;5.53;;;2.80;;
15848;SDS011;8024;48.708;9.394;2023-04-26T13:06:13;4.40;;;1.93;;
15848;SDS011;8024;48.708;9.394;2023-04-26T13:08:40;5.47;;;2.07;;
15848;SDS011;8024;48.708;9.394;2023-04-26T13:11:07;3.00;;;2.40;;
15848;SDS011;8024;48.708;9.394;2023-04-26T13:13:36;5.47;;;2.73;;
15848;SDS011;8024;48.708;9.394;2023-04-26T13:16:03;5.70;;;2.83;;
15848;SDS011;8024;48.708;9.394;2023-04-26T13:18:31;2.73;;;2.20;;
15848;SDS011;8024;48.708;9.394;2023-04-26T13:20:58;3.53;;;2.20;;
15848;SDS011;8024;48.708;9.394;2023-04-26T13:23:25;2.63;;;2.10;;
15848;SDS011;8024;48.708;9.394;2023-04-26T13:25:52;3.73;;;2.20;;
15848;SDS011;8024;48.708;9.394;2023-04-26T13:28:19;4.87;;;2.30;;
15848;SDS011;8024;48.708;9.394;2023-04-26T13:30:48;2.47;;;2.20;;
15848;SDS011;8024;48.708;9.394;2023-04-26T13:33:16;4.20;;;2.50;;
15848;SDS011;8024;48.708;9.394;2023-04-26T13:35:43;2.37;;;2.23;;
15848;SDS011;8024;48.708;9.394;2023-04-26T13:38:10;3.53;;;2.40;;
15848;SDS011;8024;48.708;9.394;2023-04-26T13:40:37;4.17;;;2.00;;
15848;SDS011;8024;48.708;9.394;2023-04-26T13:43:05;5.03;;;2.10;;
15848;SDS011;8024;48.708;9.394;2023-04-26T13:45:32;2.93;;;2.10;;
15848;SDS011;8024;48.708;9.394;2023-04-26T13:48:00;3.30;;;2.53;;
15848;SDS011;8024;48.708;9.394;2023-04-26T13:50:27;4.20;;;2.50;;
15848;SDS011;8024;48.708;9.394;2023-04-26T13:52:54;2.13;;;1.90;;
15848;SDS011;8024;48.708;9.394;2023-04-26T13:55:22;3.10;;;1.57;;
15848;SDS011;8024;48.708;9.394;2023-04-26T13:57:49;1.77;;;1.63;;
15848;SDS011;8024;48.708;9.394;2023-04-26T14:00:17;3.40;;;1.67;;
15848;SDS011;8024;48.708;9.394;2023-04-26T14:02:44;2.50;;;1.70;;
15848;SDS011;8024;48.708;9.394;2023-04-26T14:05:13;4.70;;;2.13;;
15848;SDS011;8024;48.708;9.394;2023-04-26T14:07:40;2.83;;;2.10;;
15848;SDS011;8024;48.708;9.394;2023-04-26T14:10:07;2.07;;;1.87;;
15848;SDS011;8024;48.708;9.394;2023-04-26T14:12:36;2.27;;;2.03;;
15848;SDS011;8024;48.708;9.394;2023-04-26T14:15:04;3.13;;;1.97;;
15848;SDS011;8024;48.708;9.394;2023-04-26T14:17:32;4.20;;;2.07;;
15848;SDS011;8024;48.708;9.394;2023-04-26T14:19:59;4.67;;;1.90;;
15848;SDS011;8024;48.708;9.394;2023-04-26T14:22:27;2.30;;;2.10;;
15848;SDS011;8024;48.708;9.394;2023-04-26T14:24:55;3.20;;;1.90;;
15848;SDS011;8024;48.708;9.394;2023-04-26T14:27:22;5.70;;;2.13;;
15848;SDS011;8024;48.708;9.394;2023-04-26T14:29:49;2.00;;;1.90;;
15848;SDS011;8024;48.708;9.394;2023-04-26T14:32:17;3.77;;;1.83;;
15848;SDS011;8024;48.708;9.394;2023-04-26T14:34:44;4.40;;;1.80;;
15848;SDS011;8024;48.708;9.394;2023-04-26T14:37:12;5.27;;;1.90;;
15848;SDS011;8024;48.708;9.394;2023-04-26T14:39:40;2.23;;;1.97;;
15848;SDS011;8024;48.708;9.394;2023-04-26T14:42:07;5.10;;;2.20;;
15848;SDS011;8024;48.708;9.394;2023-04-26T14:44:35;4.10;;;1.93;;
15848;SDS011;8024;48.708;9.394;2023-04-26T14:47:02;4.77;;;2.87;;
15848;SDS011;8024;48.708;9.394;2023-04-26T14:49:29;2.93;;;2.20;;
15848;SDS011;8024;48.708;9.394;2023-04-26T14:51:56;4.83;;;2.20;;
15848;SDS011;8024;48.708;9.394;2023-04-26T14:54:23;3.50;;;2.40;;
15848;SDS011;8024;48.708;9.394;2023-04-26T14:56:52;3.57;;;1.87;;
15848;SDS011;8024;48.708;9.394;2023-04-26T14:59:19;4.43;;;2.27;;
15848;SDS011;8024;48.708;9.394;2023-04-26T15:01:46;2.43;;;2.10;;
15848;SDS011;8024;48.708;9.394;2023-04-26T15:04:17;2.47;;;1.67;;
15848;SDS011;8024;48.708;9.394;2023-04-26T15:06:44;4.23;;;2.30;;